Weldon, Illinois
Current Conditions -  °F | °C
As of 7:54 AM on Monday 26 Jan 2015 (Local Time) from KDEC Reporting Station
Few Clouds Few Clouds  
Wind Chill: 12°   Ceiling: Unl
Heat Index: 22°   Visibility: 10mi
Dew Point: 21°   Wind: 9mph
Humidity: 96%   Direction: 300°WNW
Pressure: 30"   Gusts: NA
Location:  40.12°N, 88.75°W
Report Text: KDEC 261354Z 30008KT 10SM FEW010 M06/M06 A3000 RMK AO2 SLP169 T10561061
Loading
Personal Weather Stations






























Interactive Weather Map New forecast layout! Learn more

10-Day Weather Forecast

Advertisements
Track Severe Weather on mobile